createdAt,value
2022-09-14T00:02:43.302Z,5.47
2022-09-14T00:05:29.403Z,7.13
2022-09-14T00:08:15.422Z,4.60
2022-09-14T00:11:10.311Z,9.45
2022-09-14T00:13:57.937Z,6.10
2022-09-14T00:16:44.679Z,4.70
2022-09-14T00:19:30.579Z,11.38
2022-09-14T00:22:16.498Z,6.65
2022-09-14T00:25:02.274Z,7.32
2022-09-14T00:27:47.889Z,6.55
2022-09-14T00:30:33.609Z,4.25
2022-09-14T00:33:19.571Z,3.50
2022-09-14T00:36:11.362Z,2.25
2022-09-14T00:38:58.196Z,4.70
2022-09-14T00:41:46.519Z,9.13
2022-09-14T00:44:32.622Z,10.13
2022-09-14T00:47:18.413Z,3.95
2022-09-14T00:50:05.711Z,7.63
2022-09-14T00:52:51.574Z,4.78
2022-09-14T00:55:37.823Z,6.18
2022-09-14T00:58:23.879Z,3.00
2022-09-14T01:01:10.494Z,8.63
2022-09-14T01:03:56.522Z,5.13
2022-09-14T01:06:53.873Z,5.95
2022-09-14T01:09:46.713Z,3.78
2022-09-14T01:12:45.338Z,4.85
2022-09-14T01:15:43.139Z,4.38
2022-09-14T01:18:51.210Z,6.50
2022-09-14T01:21:42.093Z,4.40
2022-09-14T01:24:49.644Z,4.13
2022-09-14T01:27:41.809Z,7.88
2022-09-14T01:30:29.003Z,1.92
2022-09-14T01:33:18.370Z,5.00
2022-09-14T01:36:07.082Z,4.53
2022-09-14T01:38:54.070Z,3.15
2022-09-14T01:41:40.183Z,2.78
2022-09-14T01:44:30.214Z,6.88
2022-09-14T01:47:20.565Z,8.80
2022-09-14T01:50:14.734Z,4.50
2022-09-14T01:53:43.907Z,10.18
2022-09-14T01:56:37.564Z,4.63
2022-09-14T01:59:26.587Z,2.85
2022-09-14T02:02:26.334Z,5.35
2022-09-14T02:05:31.169Z,7.80
2022-09-14T02:08:17.532Z,6.85
2022-09-14T02:11:03.459Z,3.80
2022-09-14T02:13:49.268Z,2.88
2022-09-14T02:16:35.832Z,3.83
2022-09-14T02:19:23.961Z,2.25
2022-09-14T02:22:10.064Z,2.85
2022-09-14T02:24:56.842Z,2.85
2022-09-14T02:27:42.961Z,3.50
2022-09-14T02:30:38.105Z,2.20
2022-09-14T02:33:35.157Z,1.77
2022-09-14T02:36:38.912Z,4.70
2022-09-14T02:40:14.537Z,4.80
2022-09-14T02:43:21.417Z,3.10
2022-09-14T02:46:06.976Z,5.38
2022-09-14T02:49:02.062Z,5.05
2022-09-14T02:51:47.528Z,10.90
2022-09-14T02:54:46.341Z,3.42
2022-09-14T02:57:32.109Z,4.13
2022-09-14T03:00:17.884Z,2.83
2022-09-14T03:03:05.161Z,5.85
2022-09-14T03:05:51.313Z,3.78
2022-09-14T03:08:37.535Z,1.52
2022-09-14T03:11:23.296Z,6.80
2022-09-14T03:14:11.017Z,12.20
2022-09-14T03:16:56.644Z,3.65
2022-09-14T03:19:42.419Z,3.58
2022-09-14T03:22:28.154Z,2.78
2022-09-14T03:25:14.691Z,6.43
2022-09-14T03:28:00.593Z,4.75
2022-09-14T03:30:46.634Z,6.00
2022-09-14T03:33:32.431Z,7.70
2022-09-14T03:36:19.426Z,5.50
2022-09-14T03:39:05.425Z,3.90
2022-09-14T03:41:51.123Z,4.68
2022-09-14T03:44:36.861Z,5.13
2022-09-14T03:47:22.800Z,2.65
2022-09-14T03:50:10.895Z,2.22
2022-09-14T03:52:57.078Z,10.13
2022-09-14T03:55:43.190Z,4.05
2022-09-14T03:58:32.007Z,4.85
2022-09-14T04:01:21.057Z,4.13
2022-09-14T04:04:06.870Z,7.82
2022-09-14T04:06:52.529Z,8.25
2022-09-14T04:09:38.826Z,7.63
2022-09-14T04:12:25.239Z,13.45
2022-09-14T04:15:10.886Z,13.65
2022-09-14T04:17:56.883Z,37.50
2022-09-14T04:20:42.530Z,22.00
2022-09-14T04:23:28.539Z,7.82
2022-09-14T04:26:17.230Z,13.60
2022-09-14T04:29:03.633Z,8.10
2022-09-14T04:31:49.387Z,7.97
2022-09-14T04:34:35.709Z,12.57
2022-09-14T04:37:21.513Z,10.25
2022-09-14T04:40:07.738Z,11.80
2022-09-14T04:42:53.718Z,8.13
2022-09-14T04:45:39.312Z,7.50
2022-09-14T04:48:25.033Z,8.38
2022-09-14T04:51:16.703Z,8.30
2022-09-14T04:54:04.543Z,11.45
2022-09-14T04:56:50.430Z,7.82
2022-09-14T04:59:36.134Z,13.40
2022-09-14T05:02:22.059Z,6.53
2022-09-14T05:05:08.642Z,15.68
2022-09-14T05:07:54.284Z,19.30
2022-09-14T05:10:39.999Z,18.15
2022-09-14T05:13:26.037Z,11.13
2022-09-14T05:16:25.370Z,5.88
2022-09-14T05:19:14.507Z,5.53
2022-09-14T05:22:00.277Z,20.10
2022-09-14T05:24:45.893Z,7.72
2022-09-14T05:27:31.659Z,19.90
2022-09-14T05:30:17.507Z,16.88
2022-09-14T05:33:03.524Z,23.00
2022-09-14T05:35:50.399Z,11.77
2022-09-14T05:38:38.130Z,16.02
2022-09-14T05:41:23.971Z,11.45
2022-09-14T05:44:09.641Z,21.08
2022-09-14T05:46:55.448Z,19.25
2022-09-14T05:49:41.305Z,9.80
2022-09-14T05:52:29.589Z,14.55
2022-09-14T05:55:15.722Z,19.80
2022-09-14T05:58:01.775Z,11.65
2022-09-14T06:00:48.106Z,11.95
2022-09-14T06:03:34.100Z,13.98
2022-09-14T06:06:21.000Z,9.43
2022-09-14T06:09:06.983Z,15.55
2022-09-14T06:11:52.937Z,10.98
2022-09-14T06:14:38.481Z,8.82
2022-09-14T06:17:24.330Z,10.32
2022-09-14T06:20:10.693Z,11.10
2022-09-14T06:22:56.515Z,9.57
2022-09-14T06:25:44.738Z,10.13
2022-09-14T06:28:31.107Z,15.15
2022-09-14T06:31:18.449Z,18.80
2022-09-14T06:34:04.960Z,13.82
2022-09-14T06:36:50.811Z,17.58
2022-09-14T06:39:36.968Z,10.90
2022-09-14T06:42:22.712Z,12.88
2022-09-14T06:45:11.164Z,14.35
2022-09-14T06:47:57.690Z,14.15
2022-09-14T06:50:43.860Z,9.50
2022-09-14T06:53:29.625Z,10.88
2022-09-14T06:56:17.360Z,10.98
2022-09-14T06:59:04.595Z,10.90
2022-09-14T07:01:50.813Z,12.70
2022-09-14T07:04:37.058Z,9.07
2022-09-14T07:07:23.050Z,10.77
2022-09-14T07:10:08.808Z,13.98
2022-09-14T07:12:55.294Z,9.73
2022-09-14T07:15:40.819Z,21.27
2022-09-14T07:18:32.272Z,36.05
2022-09-14T07:21:19.458Z,31.00
2022-09-14T07:24:05.378Z,21.33
2022-09-14T07:26:51.200Z,12.15
2022-09-14T07:29:36.939Z,16.65
2022-09-14T07:32:22.801Z,13.30
2022-09-14T07:35:08.866Z,12.50
2022-09-14T07:37:55.000Z,16.83
2022-09-14T07:40:40.825Z,13.85
2022-09-14T07:43:26.778Z,10.30
2022-09-14T07:46:12.974Z,13.80
2022-09-14T07:49:02.376Z,12.10
2022-09-14T07:51:49.010Z,11.48
2022-09-14T07:54:35.616Z,13.68
2022-09-14T07:57:33.993Z,9.25
2022-09-14T08:00:27.364Z,11.10
2022-09-14T08:03:13.030Z,39.20
2022-09-14T08:06:03.132Z,34.53
2022-09-14T08:08:50.578Z,19.20
2022-09-14T08:11:37.163Z,29.08
2022-09-14T08:14:23.473Z,28.80
2022-09-14T08:17:10.726Z,20.40
2022-09-14T08:19:57.017Z,15.43
2022-09-14T08:22:44.814Z,17.85
2022-09-14T08:25:31.359Z,19.83
2022-09-14T08:28:17.321Z,16.50
2022-09-14T08:48:06.231Z,10.77
2022-09-14T09:04:14.026Z,15.68
2022-09-14T09:07:11.954Z,10.43
2022-09-14T09:09:58.272Z,12.52
2022-09-14T09:12:58.758Z,10.52
2022-09-14T09:15:53.327Z,12.65
2022-09-14T09:19:01.707Z,11.63
2022-09-14T09:21:48.359Z,8.27
2022-09-14T09:24:40.699Z,8.40
2022-09-14T09:27:27.870Z,8.88
2022-09-14T09:30:15.659Z,12.23
2022-09-14T09:33:02.108Z,7.60
2022-09-14T09:36:16.053Z,10.85
2022-09-14T09:39:05.468Z,9.20
2022-09-14T09:41:57.587Z,12.73
2022-09-14T09:45:06.742Z,14.38
2022-09-14T09:47:52.547Z,14.82
2022-09-14T09:50:59.794Z,11.57
2022-09-14T09:54:19.509Z,7.22
2022-09-14T09:57:31.903Z,9.02
2022-09-14T10:00:24.368Z,10.48
2022-09-14T10:03:28.302Z,14.55
2022-09-14T10:06:14.837Z,9.20
2022-09-14T10:09:00.855Z,9.18
2022-09-14T10:11:48.123Z,9.55
2022-09-14T10:14:35.961Z,9.10
2022-09-14T10:17:23.247Z,10.00
2022-09-14T10:20:22.507Z,7.93
2022-09-14T10:23:18.725Z,6.72
2022-09-14T10:26:10.872Z,8.68
2022-09-14T10:29:20.721Z,6.38
2022-09-14T10:32:17.757Z,11.40
2022-09-14T10:35:15.614Z,5.82
2022-09-14T10:38:20.239Z,8.88
2022-09-14T10:41:36.935Z,9.98
2022-09-14T10:44:44.067Z,9.70
2022-09-14T10:47:45.395Z,7.30
2022-09-14T10:50:41.293Z,14.23
2022-09-14T10:53:57.590Z,9.63
2022-09-14T10:57:14.211Z,5.65
2022-09-14T11:00:13.170Z,6.30
2022-09-14T11:03:09.266Z,9.32
2022-09-14T11:06:02.748Z,6.20
2022-09-14T11:09:19.845Z,4.57
2022-09-14T11:12:38.398Z,8.65
2022-09-14T11:15:31.804Z,11.77
2022-09-14T11:19:02.836Z,12.38
2022-09-14T11:21:50.673Z,8.20
2022-09-14T11:25:13.016Z,7.75
2022-09-14T11:28:01.145Z,16.00
2022-09-14T11:31:31.680Z,6.70
2022-09-14T11:34:48.143Z,12.90
2022-09-14T11:37:40.690Z,7.85
2022-09-14T11:40:46.456Z,12.70
2022-09-14T11:43:56.463Z,6.30
2022-09-14T11:47:08.878Z,8.25
2022-09-14T11:50:16.849Z,4.60
2022-09-14T11:53:09.620Z,4.85
2022-09-14T11:55:55.812Z,16.33
2022-09-14T11:58:41.522Z,5.82
2022-09-14T12:01:32.230Z,8.70
2022-09-14T12:04:19.511Z,15.48
2022-09-14T12:07:05.672Z,5.47
2022-09-14T12:09:53.369Z,13.27
2022-09-14T12:12:40.697Z,11.13
2022-09-14T12:15:26.545Z,7.80
2022-09-14T12:18:13.412Z,3.30
2022-09-14T12:21:18.084Z,8.23
2022-09-14T12:24:14.669Z,6.50
2022-09-14T12:27:15.508Z,8.68
2022-09-14T12:30:01.223Z,13.25
2022-09-14T12:32:47.348Z,10.55
2022-09-14T12:35:45.914Z,10.45
2022-09-14T12:38:31.883Z,13.30
2022-09-14T12:41:20.656Z,21.20
2022-09-14T12:44:33.180Z,11.73
2022-09-14T12:47:25.484Z,4.35
2022-09-14T12:50:19.874Z,9.02
2022-09-14T12:53:35.339Z,5.80
2022-09-14T12:56:31.313Z,8.48
2022-09-14T12:59:38.896Z,14.13
2022-09-14T13:02:48.493Z,9.57
2022-09-14T13:05:34.740Z,10.63
2022-09-14T13:08:23.737Z,12.73
2022-09-14T13:11:10.192Z,8.68
2022-09-14T13:13:56.484Z,23.40
2022-09-14T13:16:44.641Z,9.80
2022-09-14T13:19:32.776Z,24.45
2022-09-14T13:22:24.421Z,16.77
2022-09-14T13:25:27.130Z,21.70
2022-09-14T13:28:18.144Z,20.50
2022-09-14T13:31:05.431Z,20.45
2022-09-14T13:33:52.872Z,17.00
2022-09-14T13:36:42.442Z,16.73
2022-09-14T13:39:34.514Z,12.63
2022-09-14T13:42:21.879Z,12.10
2022-09-14T13:45:08.683Z,7.47
2022-09-14T13:47:55.070Z,9.02
2022-09-14T13:50:44.090Z,10.63
2022-09-14T13:53:42.087Z,10.77
2022-09-14T13:56:33.985Z,16.25
2022-09-14T13:59:21.807Z,28.65
2022-09-14T14:02:16.398Z,6.00
2022-09-14T14:05:04.098Z,22.35
2022-09-14T14:07:50.081Z,10.77
2022-09-14T14:11:41.247Z,10.13
2022-09-14T14:14:31.313Z,16.10
2022-09-14T14:17:37.003Z,12.30
2022-09-14T14:20:36.753Z,18.15
2022-09-14T14:23:23.176Z,13.75
2022-09-14T14:26:14.601Z,13.85
2022-09-14T14:29:09.771Z,12.45
2022-09-14T14:31:56.613Z,9.57
2022-09-14T14:34:42.875Z,13.90
2022-09-14T14:37:28.734Z,11.70
2022-09-14T14:40:15.892Z,16.10
2022-09-14T14:43:05.562Z,20.15
2022-09-14T14:45:57.749Z,12.88
2022-09-14T14:48:43.820Z,18.45
2022-09-14T14:51:30.496Z,13.88
2022-09-14T14:54:18.837Z,14.55
2022-09-14T14:57:05.288Z,10.05
2022-09-14T14:59:52.858Z,9.68
2022-09-14T15:02:38.898Z,9.80
2022-09-14T15:05:25.677Z,13.35
2022-09-14T15:08:16.248Z,13.38
2022-09-14T15:11:02.341Z,16.92
2022-09-14T15:13:48.748Z,15.27
2022-09-14T15:16:35.148Z,10.38
2022-09-14T15:19:21.438Z,14.27
2022-09-14T15:22:07.456Z,13.13
2022-09-14T15:24:53.371Z,13.55
2022-09-14T15:27:40.412Z,12.23
2022-09-14T15:30:26.644Z,14.35
2022-09-14T15:33:12.697Z,10.93
2022-09-14T15:35:58.800Z,11.68
2022-09-14T15:38:44.575Z,20.08
2022-09-14T15:41:30.400Z,11.30
2022-09-14T15:44:16.441Z,8.30
2022-09-14T15:47:02.184Z,10.90
2022-09-14T15:49:51.837Z,12.93
2022-09-14T15:52:39.040Z,10.82
2022-09-14T15:55:24.723Z,15.93
2022-09-14T15:58:11.447Z,19.65
2022-09-14T16:00:57.721Z,16.73
2022-09-14T16:03:44.145Z,10.05
2022-09-14T16:06:30.710Z,10.77
2022-09-14T16:09:18.279Z,13.38
2022-09-14T16:12:04.647Z,20.02
2022-09-14T16:14:50.507Z,11.57
2022-09-14T16:17:36.525Z,26.30
2022-09-14T16:20:22.864Z,32.03
2022-09-14T16:23:09.143Z,16.88
2022-09-14T16:25:55.152Z,19.98
2022-09-14T16:28:42.483Z,14.88
2022-09-14T16:31:34.674Z,10.45
2022-09-14T16:34:27.432Z,16.00
2022-09-14T16:37:13.839Z,16.92
2022-09-14T16:39:59.963Z,21.27
2022-09-14T16:42:48.095Z,27.92
2022-09-14T16:45:33.938Z,27.92
2022-09-14T16:48:19.810Z,28.58
2022-09-14T16:51:06.633Z,35.88
2022-09-14T16:53:52.922Z,25.58
2022-09-14T16:56:39.095Z,33.92
2022-09-14T16:59:25.611Z,34.30
2022-09-14T17:02:11.873Z,33.67
2022-09-14T17:04:58.304Z,61.42
2022-09-14T17:07:44.172Z,42.00
2022-09-14T17:10:34.362Z,43.03
2022-09-14T17:13:26.035Z,36.85
2022-09-14T17:16:19.893Z,61.53
2022-09-14T17:19:06.149Z,50.20
2022-09-14T17:21:52.245Z,51.65
2022-09-14T17:24:38.618Z,39.53
2022-09-14T17:27:24.334Z,38.72
2022-09-14T17:30:10.814Z,35.63
2022-09-14T17:32:56.669Z,32.55
2022-09-14T17:35:58.609Z,29.73
2022-09-14T17:38:44.990Z,44.03
2022-09-14T17:41:33.186Z,36.70
2022-09-14T17:44:20.052Z,31.38
2022-09-14T17:47:06.165Z,30.60
2022-09-14T17:49:52.278Z,44.72
2022-09-14T17:52:38.059Z,42.53
2022-09-14T17:55:24.755Z,32.25
2022-09-14T17:58:10.924Z,48.55
2022-09-14T18:01:30.748Z,41.45
2022-09-14T18:04:17.023Z,49.42
2022-09-14T18:07:04.778Z,40.20
2022-09-14T18:09:50.649Z,32.55
2022-09-14T18:12:36.841Z,31.58
2022-09-14T18:15:22.793Z,23.00
2022-09-14T18:18:08.610Z,22.63
2022-09-14T18:20:54.239Z,23.83
2022-09-14T18:23:40.091Z,15.02
2022-09-14T18:26:26.741Z,16.58
2022-09-14T18:29:17.754Z,42.72
2022-09-14T18:32:03.674Z,34.95
2022-09-14T18:34:49.412Z,36.40
2022-09-14T18:37:35.256Z,46.22
2022-09-14T18:40:21.736Z,35.58
2022-09-14T18:43:08.606Z,31.55
2022-09-14T18:45:54.827Z,31.02
2022-09-14T18:48:43.671Z,22.50
2022-09-14T18:51:30.621Z,14.93
2022-09-14T18:54:16.929Z,8.68
2022-09-14T18:57:02.801Z,12.13
2022-09-14T18:59:49.507Z,18.35
2022-09-14T19:02:36.558Z,11.35
2022-09-14T19:05:23.960Z,12.25
2022-09-14T19:08:10.213Z,27.58
2022-09-14T19:10:56.169Z,21.52
2022-09-14T19:13:42.152Z,25.88
2022-09-14T19:16:29.238Z,28.92
2022-09-14T19:19:15.638Z,39.90
2022-09-14T19:22:01.617Z,25.27
2022-09-14T19:24:47.418Z,28.58
2022-09-14T19:27:33.580Z,21.38
2022-09-14T19:30:19.398Z,17.17
2022-09-14T19:33:05.278Z,13.32
2022-09-14T19:35:51.273Z,22.20
2022-09-14T19:38:37.551Z,23.63
2022-09-14T19:41:23.664Z,25.35
2022-09-14T19:44:10.952Z,26.05
2022-09-14T19:46:56.634Z,22.25
2022-09-14T19:49:42.473Z,25.73
2022-09-14T19:52:28.083Z,30.35
2022-09-14T19:55:13.690Z,18.85
2022-09-14T19:57:59.631Z,15.18
2022-09-14T20:00:45.702Z,18.13
2022-09-14T20:03:34.159Z,18.52
2022-09-14T20:06:26.700Z,20.90
2022-09-14T20:09:21.220Z,19.80
2022-09-14T20:12:06.916Z,23.88
2022-09-14T20:14:52.838Z,26.02
2022-09-14T20:17:38.610Z,29.85
2022-09-14T20:20:24.314Z,19.70
2022-09-14T20:23:10.064Z,21.30
2022-09-14T20:25:56.994Z,29.20
2022-09-14T20:28:43.541Z,21.88
2022-09-14T20:31:30.766Z,18.85
2022-09-14T20:34:20.619Z,23.05
2022-09-14T20:37:06.747Z,27.45
2022-09-14T20:39:52.825Z,17.23
2022-09-14T20:42:38.546Z,19.85
2022-09-14T20:45:24.289Z,23.73
2022-09-14T20:48:09.885Z,22.63
2022-09-14T20:50:56.686Z,26.45
2022-09-14T20:53:43.186Z,20.08
2022-09-14T20:56:31.664Z,22.73
2022-09-14T20:59:27.575Z,17.48
2022-09-14T21:02:13.383Z,16.65
2022-09-14T21:05:00.074Z,15.52
2022-09-14T21:08:01.646Z,21.02
2022-09-14T21:10:47.632Z,25.58
2022-09-14T21:13:34.398Z,21.10
2022-09-14T21:16:25.203Z,30.50
2022-09-14T21:19:27.174Z,19.92
2022-09-14T21:22:13.138Z,28.98
2022-09-14T21:24:58.836Z,18.08
2022-09-14T21:27:44.498Z,16.20
2022-09-14T21:30:31.432Z,24.35
2022-09-14T21:33:17.698Z,16.58
2022-09-14T21:36:06.224Z,15.10
2022-09-14T21:38:56.996Z,14.65
2022-09-14T21:41:44.850Z,10.60
2022-09-14T21:44:32.158Z,16.13
2022-09-14T21:47:18.208Z,17.45
2022-09-14T21:50:04.845Z,11.73
2022-09-14T21:52:50.726Z,12.15
2022-09-14T21:55:40.210Z,21.20
2022-09-14T21:58:26.207Z,24.85
2022-09-14T22:01:12.233Z,21.98
2022-09-14T22:04:03.785Z,21.95
2022-09-14T22:06:51.475Z,18.40
2022-09-14T22:09:37.228Z,21.67
2022-09-14T22:12:22.955Z,18.45
2022-09-14T22:15:09.241Z,15.82
2022-09-14T22:17:58.351Z,8.50
2022-09-14T22:20:46.180Z,11.60
2022-09-14T22:23:32.560Z,15.75
2022-09-14T22:26:20.192Z,7.22
2022-09-14T22:29:07.668Z,9.75
2022-09-14T22:31:53.459Z,11.25
2022-09-14T22:34:41.581Z,10.15
2022-09-14T22:37:27.743Z,15.48
2022-09-14T22:40:13.490Z,15.27
2022-09-14T22:42:59.105Z,15.40
2022-09-14T22:45:44.839Z,14.35
2022-09-14T22:48:31.282Z,11.25
2022-09-14T22:51:23.151Z,15.00
2022-09-14T22:54:08.856Z,14.00
2022-09-14T22:56:54.466Z,14.90
2022-09-14T22:59:39.954Z,9.35
2022-09-14T23:02:25.773Z,7.05
2022-09-14T23:05:11.746Z,11.70
2022-09-14T23:07:57.537Z,17.38
2022-09-14T23:10:43.152Z,12.68
2022-09-14T23:13:28.733Z,12.75
2022-09-14T23:16:19.865Z,8.73
2022-09-14T23:19:09.750Z,15.23
2022-09-14T23:21:55.819Z,11.32
2022-09-14T23:24:41.926Z,14.02
2022-09-14T23:27:27.881Z,14.82
2022-09-14T23:30:13.915Z,13.40
2022-09-14T23:33:00.293Z,16.83
2022-09-14T23:35:49.503Z,12.23
2022-09-14T23:38:35.459Z,7.00
2022-09-14T23:41:22.895Z,5.65
2022-09-14T23:44:12.911Z,7.65
2022-09-14T23:46:58.703Z,6.65
2022-09-14T23:49:44.461Z,9.25
2022-09-14T23:52:30.194Z,7.53
2022-09-14T23:55:16.130Z,8.13
2022-09-14T23:58:01.828Z,10.30
